sensor_id;sensor_type;location;lat;lon;timestamp;pressure;altitude;pressure_sealevel;temperature;humidity
18275;BME280;19470;49.322;7.218;2023-12-14T00:01:27;97642.09;;;14.12;85.00
18275;BME280;19470;49.322;7.218;2023-12-14T00:03:53;97649.97;;;14.17;84.91
18275;BME280;19470;49.322;7.218;2023-12-14T00:06:40;97653.31;;;14.41;83.40
18275;BME280;19470;49.322;7.218;2023-12-14T00:09:06;97655.50;;;14.20;84.13
18275;BME280;19470;49.322;7.218;2023-12-14T00:11:37;97664.59;;;14.85;81.20
18275;BME280;19470;49.322;7.218;2023-12-14T00:14:04;97664.53;;;14.57;82.40
18275;BME280;19470;49.322;7.218;2023-12-14T00:16:30;97668.16;;;14.28;83.46
18275;BME280;19470;49.322;7.218;2023-12-14T00:18:57;97670.75;;;14.33;83.52
18275;BME280;19470;49.322;7.218;2023-12-14T00:21:23;97675.94;;;14.25;84.03
18275;BME280;19470;49.322;7.218;2023-12-14T00:23:51;97671.00;;;14.18;85.18
18275;BME280;19470;49.322;7.218;2023-12-14T00:26:18;97675.31;;;14.14;85.00
18275;BME280;19470;49.322;7.218;2023-12-14T00:28:44;97684.78;;;14.20;84.74
18275;BME280;19470;49.322;7.218;2023-12-14T00:31:11;97682.47;;;14.32;84.46
18275;BME280;19470;49.322;7.218;2023-12-14T00:33:37;97690.34;;;14.24;84.28
18275;BME280;19470;49.322;7.218;2023-12-14T00:36:04;97692.84;;;14.34;84.23
18275;BME280;19470;49.322;7.218;2023-12-14T00:38:31;97695.34;;;14.63;82.76
18275;BME280;19470;49.322;7.218;2023-12-14T00:40:58;97697.38;;;13.96;87.06
18275;BME280;19470;49.322;7.218;2023-12-14T00:43:25;97701.94;;;14.14;87.08
18275;BME280;19470;49.322;7.218;2023-12-14T00:45:51;97704.50;;;14.00;86.84
18275;BME280;19470;49.322;7.218;2023-12-14T00:48:18;97714.66;;;14.36;85.53
18275;BME280;19470;49.322;7.218;2023-12-14T00:50:45;97707.31;;;14.47;85.23
18275;BME280;19470;49.322;7.218;2023-12-14T00:53:12;97717.72;;;14.43;85.16
18275;BME280;19470;49.322;7.218;2023-12-14T00:55:38;97707.78;;;14.68;83.26
18275;BME280;19470;49.322;7.218;2023-12-14T00:58:06;97717.47;;;14.26;85.04
18275;BME280;19470;49.322;7.218;2023-12-14T01:00:33;97725.72;;;14.62;84.42
18275;BME280;19470;49.322;7.218;2023-12-14T01:02:59;97722.28;;;14.43;84.78
18275;BME280;19470;49.322;7.218;2023-12-14T01:05:25;97737.63;;;14.51;85.22
18275;BME280;19470;49.322;7.218;2023-12-14T01:07:52;97734.59;;;14.39;85.46
18275;BME280;19470;49.322;7.218;2023-12-14T01:10:18;97743.28;;;14.63;84.45
18275;BME280;19470;49.322;7.218;2023-12-14T01:12:45;97743.19;;;14.54;85.55
18275;BME280;19470;49.322;7.218;2023-12-14T01:15:13;97743.13;;;14.92;83.28
18275;BME280;19470;49.322;7.218;2023-12-14T01:17:39;97752.81;;;14.69;84.13
18275;BME280;19470;49.322;7.218;2023-12-14T01:20:06;97756.41;;;14.78;83.86
18275;BME280;19470;49.322;7.218;2023-12-14T01:22:33;97761.28;;;14.71;84.70
18275;BME280;19470;49.322;7.218;2023-12-14T01:25:00;97770.38;;;14.70;83.21
18275;BME280;19470;49.322;7.218;2023-12-14T01:27:26;97768.63;;;14.79;83.29
18275;BME280;19470;49.322;7.218;2023-12-14T01:29:53;97774.19;;;14.83;83.81
18275;BME280;19470;49.322;7.218;2023-12-14T01:32:21;97771.38;;;14.74;83.50
18275;BME280;19470;49.322;7.218;2023-12-14T01:34:47;97779.88;;;14.76;83.74
18275;BME280;19470;49.322;7.218;2023-12-14T01:37:14;97788.13;;;14.94;83.71
18275;BME280;19470;49.322;7.218;2023-12-14T01:39:41;97790.06;;;15.07;82.52
18275;BME280;19470;49.322;7.218;2023-12-14T01:42:26;97792.38;;;14.95;83.00
18275;BME280;19470;49.322;7.218;2023-12-14T01:44:52;97795.13;;;14.90;83.08
18275;BME280;19470;49.322;7.218;2023-12-14T01:47:20;97788.03;;;14.66;84.06
18275;BME280;19470;49.322;7.218;2023-12-14T01:49:47;97800.47;;;14.90;83.21
18275;BME280;19470;49.322;7.218;2023-12-14T01:52:13;97810.81;;;14.59;85.18
18275;BME280;19470;49.322;7.218;2023-12-14T01:54:42;97809.19;;;14.57;84.66
18275;BME280;19470;49.322;7.218;2023-12-14T01:57:09;97822.09;;;14.69;84.03
18275;BME280;19470;49.322;7.218;2023-12-14T01:59:35;97823.97;;;14.69;84.31
18275;BME280;19470;49.322;7.218;2023-12-14T02:02:02;97818.75;;;14.40;86.27
18275;BME280;19470;49.322;7.218;2023-12-14T02:04:53;97828.75;;;14.05;88.44
18275;BME280;19470;49.322;7.218;2023-12-14T02:07:20;97833.28;;;14.28;87.58
18275;BME280;19470;49.322;7.218;2023-12-14T02:09:46;97844.44;;;14.73;85.18
18275;BME280;19470;49.322;7.218;2023-12-14T02:12:13;97844.44;;;14.30;86.80
18275;BME280;19470;49.322;7.218;2023-12-14T02:14:39;97847.66;;;14.70;85.65
18275;BME280;19470;49.322;7.218;2023-12-14T02:17:06;97850.03;;;14.53;86.21
18275;BME280;19470;49.322;7.218;2023-12-14T02:19:32;97852.06;;;14.61;85.28
18275;BME280;19470;49.322;7.218;2023-12-14T02:22:00;97861.59;;;14.19;88.62
18275;BME280;19470;49.322;7.218;2023-12-14T02:24:28;97856.97;;;14.06;89.24
18275;BME280;19470;49.322;7.218;2023-12-14T02:26:56;97864.53;;;14.42;88.09
18275;BME280;19470;49.322;7.218;2023-12-14T02:29:23;97871.66;;;14.70;84.82
18275;BME280;19470;49.322;7.218;2023-12-14T02:31:49;97865.22;;;14.90;84.38
18275;BME280;19470;49.322;7.218;2023-12-14T02:34:16;97872.09;;;14.59;85.11
18275;BME280;19470;49.322;7.218;2023-12-14T02:36:44;97866.16;;;14.80;84.26
18275;BME280;19470;49.322;7.218;2023-12-14T02:39:10;97881.06;;;14.63;85.43
18275;BME280;19470;49.322;7.218;2023-12-14T02:41:38;97881.34;;;14.61;85.67
18275;BME280;19470;49.322;7.218;2023-12-14T02:44:07;97886.84;;;15.07;82.86
18275;BME280;19470;49.322;7.218;2023-12-14T02:46:34;97883.38;;;14.50;85.73
18275;BME280;19470;49.322;7.218;2023-12-14T02:49:00;97896.50;;;13.94;89.47
18275;BME280;19470;49.322;7.218;2023-12-14T02:51:27;97893.91;;;13.89;90.93
18275;BME280;19470;49.322;7.218;2023-12-14T02:53:53;97895.94;;;14.21;88.12
18275;BME280;19470;49.322;7.218;2023-12-14T02:56:22;97902.56;;;14.23;87.01
18275;BME280;19470;49.322;7.218;2023-12-14T02:58:50;97899.28;;;13.84;89.00
18275;BME280;19470;49.322;7.218;2023-12-14T03:01:19;97914.06;;;14.19;87.42
18275;BME280;19470;49.322;7.218;2023-12-14T03:03:45;97915.94;;;13.31;93.36
18275;BME280;19470;49.322;7.218;2023-12-14T03:06:12;97910.94;;;13.88;90.91
18275;BME280;19470;49.322;7.218;2023-12-14T03:08:38;97928.44;;;13.94;90.57
18275;BME280;19470;49.322;7.218;2023-12-14T03:11:05;97926.66;;;14.61;87.19
18275;BME280;19470;49.322;7.218;2023-12-14T03:13:31;97926.38;;;14.15;88.08
18275;BME280;19470;49.322;7.218;2023-12-14T03:15:59;97936.44;;;13.65;90.12
18275;BME280;19470;49.322;7.218;2023-12-14T03:18:26;97930.22;;;14.27;88.84
18275;BME280;19470;49.322;7.218;2023-12-14T03:20:52;97931.00;;;14.04;88.67
18275;BME280;19470;49.322;7.218;2023-12-14T03:23:19;97939.19;;;13.84;91.65
18275;BME280;19470;49.322;7.218;2023-12-14T03:25:45;97939.69;;;14.15;89.54
18275;BME280;19470;49.322;7.218;2023-12-14T03:28:12;97946.00;;;13.32;94.11
18275;BME280;19470;49.322;7.218;2023-12-14T03:30:39;97941.63;;;14.57;87.05
18275;BME280;19470;49.322;7.218;2023-12-14T03:33:07;97943.34;;;14.43;87.61
18275;BME280;19470;49.322;7.218;2023-12-14T03:35:33;97938.81;;;14.67;84.85
18275;BME280;19470;49.322;7.218;2023-12-14T03:37:59;97944.25;;;15.00;83.59
18275;BME280;19470;49.322;7.218;2023-12-14T03:40:26;97952.22;;;14.62;85.60
18275;BME280;19470;49.322;7.218;2023-12-14T03:42:52;97957.72;;;14.47;87.41
18275;BME280;19470;49.322;7.218;2023-12-14T03:45:19;97957.53;;;15.05;83.54
18275;BME280;19470;49.322;7.218;2023-12-14T03:47:45;97961.84;;;14.58;86.03
18275;BME280;19470;49.322;7.218;2023-12-14T03:50:13;97976.78;;;14.59;86.69
18275;BME280;19470;49.322;7.218;2023-12-14T03:52:40;97977.97;;;14.19;88.21
18275;BME280;19470;49.322;7.218;2023-12-14T03:55:07;97980.31;;;14.97;83.58
18275;BME280;19470;49.322;7.218;2023-12-14T03:57:34;97991.16;;;14.05;89.49
18275;BME280;19470;49.322;7.218;2023-12-14T04:00:01;98004.34;;;14.49;87.51
18275;BME280;19470;49.322;7.218;2023-12-14T04:02:28;98003.44;;;14.59;87.17
18275;BME280;19470;49.322;7.218;2023-12-14T04:04:55;98002.91;;;15.00;83.81
18275;BME280;19470;49.322;7.218;2023-12-14T04:07:23;98017.75;;;14.87;84.68
18275;BME280;19470;49.322;7.218;2023-12-14T04:09:49;98015.72;;;14.79;83.64
18275;BME280;19470;49.322;7.218;2023-12-14T04:12:16;98015.28;;;14.43;86.42
18275;BME280;19470;49.322;7.218;2023-12-14T04:14:42;98017.25;;;15.04;83.44
18275;BME280;19470;49.322;7.218;2023-12-14T04:17:10;98022.53;;;15.09;82.74
18275;BME280;19470;49.322;7.218;2023-12-14T04:19:38;98025.91;;;15.15;82.12
18275;BME280;19470;49.322;7.218;2023-12-14T04:22:04;98027.69;;;14.57;84.92
18275;BME280;19470;49.322;7.218;2023-12-14T04:24:32;98041.59;;;13.91;88.54
18275;BME280;19470;49.322;7.218;2023-12-14T04:26:59;98038.88;;;14.25;88.07
18275;BME280;19470;49.322;7.218;2023-12-14T04:29:25;98039.06;;;14.34;87.80
18275;BME280;19470;49.322;7.218;2023-12-14T04:31:52;98049.03;;;14.23;87.84
18275;BME280;19470;49.322;7.218;2023-12-14T04:34:19;98055.28;;;14.38;85.82
18275;BME280;19470;49.322;7.218;2023-12-14T04:36:45;98072.91;;;14.33;87.18
18275;BME280;19470;49.322;7.218;2023-12-14T04:39:13;98065.94;;;14.67;84.65
18275;BME280;19470;49.322;7.218;2023-12-14T04:41:42;98062.97;;;14.97;82.92
18275;BME280;19470;49.322;7.218;2023-12-14T04:44:08;98061.38;;;14.96;82.53
18275;BME280;19470;49.322;7.218;2023-12-14T04:46:36;98069.41;;;14.67;83.36
18275;BME280;19470;49.322;7.218;2023-12-14T04:49:03;98073.09;;;14.42;84.30
18275;BME280;19470;49.322;7.218;2023-12-14T04:51:29;98079.63;;;14.60;84.06
18275;BME280;19470;49.322;7.218;2023-12-14T04:53:57;98080.66;;;14.88;82.55
18275;BME280;19470;49.322;7.218;2023-12-14T04:56:23;98087.69;;;15.03;81.80
18275;BME280;19470;49.322;7.218;2023-12-14T04:58:51;98090.84;;;14.57;83.51
18275;BME280;19470;49.322;7.218;2023-12-14T05:01:18;98096.19;;;14.23;85.48
18275;BME280;19470;49.322;7.218;2023-12-14T05:03:44;98097.28;;;13.82;89.01
18275;BME280;19470;49.322;7.218;2023-12-14T05:06:11;98106.66;;;14.09;87.12
18275;BME280;19470;49.322;7.218;2023-12-14T05:08:37;98103.88;;;13.90;88.23
18275;BME280;19470;49.322;7.218;2023-12-14T05:11:04;98106.56;;;13.41;92.23
18275;BME280;19470;49.322;7.218;2023-12-14T05:13:30;98111.06;;;13.50;91.91
18275;BME280;19470;49.322;7.218;2023-12-14T05:15:58;98114.19;;;13.97;88.48
18275;BME280;19470;49.322;7.218;2023-12-14T05:18:26;98120.44;;;13.33;93.38
18275;BME280;19470;49.322;7.218;2023-12-14T05:20:52;98126.59;;;13.72;90.24
18275;BME280;19470;49.322;7.218;2023-12-14T05:23:19;98134.66;;;14.01;87.71
18275;BME280;19470;49.322;7.218;2023-12-14T05:25:45;98132.75;;;14.12;86.80
18275;BME280;19470;49.322;7.218;2023-12-14T05:28:12;98143.28;;;14.27;86.46
18275;BME280;19470;49.322;7.218;2023-12-14T05:30:39;98141.06;;;14.40;83.43
18275;BME280;19470;49.322;7.218;2023-12-14T05:33:08;98143.16;;;14.09;85.53
18275;BME280;19470;49.322;7.218;2023-12-14T05:35:35;98150.38;;;14.03;85.82
18275;BME280;19470;49.322;7.218;2023-12-14T05:38:04;98153.63;;;13.95;85.29
18275;BME280;19470;49.322;7.218;2023-12-14T05:40:31;98162.25;;;13.76;85.71
18275;BME280;19470;49.322;7.218;2023-12-14T05:42:57;98162.72;;;13.29;87.31
18275;BME280;19470;49.322;7.218;2023-12-14T05:45:24;98178.78;;;13.68;86.95
18275;BME280;19470;49.322;7.218;2023-12-14T05:47:50;98182.53;;;13.62;86.47
18275;BME280;19470;49.322;7.218;2023-12-14T05:50:18;98185.81;;;13.44;87.87
18275;BME280;19470;49.322;7.218;2023-12-14T05:52:47;98203.94;;;13.11;89.72
18275;BME280;19470;49.322;7.218;2023-12-14T05:55:13;98201.03;;;13.93;84.53
18275;BME280;19470;49.322;7.218;2023-12-14T05:57:40;98214.78;;;13.50;86.23
18275;BME280;19470;49.322;7.218;2023-12-14T06:00:07;98219.16;;;13.86;85.10
18275;BME280;19470;49.322;7.218;2023-12-14T06:02:34;98226.16;;;13.66;84.71
18275;BME280;19470;49.322;7.218;2023-12-14T06:05:02;98236.06;;;13.50;85.77
18275;BME280;19470;49.322;7.218;2023-12-14T06:07:30;98239.16;;;13.73;84.53
18275;BME280;19470;49.322;7.218;2023-12-14T06:09:56;98234.59;;;13.89;83.82
18275;BME280;19470;49.322;7.218;2023-12-14T06:12:23;98235.75;;;13.62;83.87
18275;BME280;19470;49.322;7.218;2023-12-14T06:14:50;98242.22;;;13.36;85.88
18275;BME280;19470;49.322;7.218;2023-12-14T06:17:16;98250.75;;;13.07;89.50
18275;BME280;19470;49.322;7.218;2023-12-14T06:19:43;98257.06;;;13.52;86.22
18275;BME280;19470;49.322;7.218;2023-12-14T06:22:09;98252.06;;;13.20;88.32
18275;BME280;19470;49.322;7.218;2023-12-14T06:24:37;98257.63;;;13.39;86.68
18275;BME280;19470;49.322;7.218;2023-12-14T06:27:04;98259.44;;;13.53;86.35
18275;BME280;19470;49.322;7.218;2023-12-14T06:29:30;98264.44;;;13.75;83.73
18275;BME280;19470;49.322;7.218;2023-12-14T06:31:57;98266.63;;;13.58;84.98
18275;BME280;19470;49.322;7.218;2023-12-14T06:34:23;98278.81;;;13.79;82.70
18275;BME280;19470;49.322;7.218;2023-12-14T06:36:55;98278.53;;;13.81;82.75
18275;BME280;19470;49.322;7.218;2023-12-14T06:39:26;98283.16;;;13.45;84.43
18275;BME280;19470;49.322;7.218;2023-12-14T06:41:54;98290.78;;;13.72;82.75
18275;BME280;19470;49.322;7.218;2023-12-14T06:44:20;98301.25;;;13.07;86.00
18275;BME280;19470;49.322;7.218;2023-12-14T06:46:47;98303.94;;;13.22;85.77
18275;BME280;19470;49.322;7.218;2023-12-14T06:49:13;98305.97;;;13.66;83.88
18275;BME280;19470;49.322;7.218;2023-12-14T06:51:40;98319.31;;;13.41;85.15
18275;BME280;19470;49.322;7.218;2023-12-14T06:54:06;98318.78;;;12.67;90.12
18275;BME280;19470;49.322;7.218;2023-12-14T06:56:33;98322.53;;;13.43;85.91
18275;BME280;19470;49.322;7.218;2023-12-14T06:59:03;98325.72;;;13.40;84.98
18275;BME280;19470;49.322;7.218;2023-12-14T07:01:30;98329.97;;;13.46;84.56
18275;BME280;19470;49.322;7.218;2023-12-14T07:03:56;98330.78;;;13.41;85.73
18275;BME280;19470;49.322;7.218;2023-12-14T07:06:23;98338.47;;;12.82;89.29
18275;BME280;19470;49.322;7.218;2023-12-14T07:08:49;98342.44;;;12.74;90.17
18275;BME280;19470;49.322;7.218;2023-12-14T07:11:16;98349.00;;;12.41;92.50
18275;BME280;19470;49.322;7.218;2023-12-14T07:13:43;98350.69;;;13.03;88.55
18275;BME280;19470;49.322;7.218;2023-12-14T07:16:18;98355.22;;;13.48;86.17
18275;BME280;19470;49.322;7.218;2023-12-14T07:18:45;98358.63;;;13.90;83.79
18275;BME280;19470;49.322;7.218;2023-12-14T07:21:12;98373.09;;;13.27;85.90
18275;BME280;19470;49.322;7.218;2023-12-14T07:23:38;98375.44;;;13.03;86.96
18275;BME280;19470;49.322;7.218;2023-12-14T07:26:05;98380.19;;;13.12;87.37
18275;BME280;19470;49.322;7.218;2023-12-14T07:28:32;98377.56;;;13.22;86.02
18275;BME280;19470;49.322;7.218;2023-12-14T07:30:58;98383.16;;;13.56;85.40
18275;BME280;19470;49.322;7.218;2023-12-14T07:33:27;98384.22;;;13.35;87.15
18275;BME280;19470;49.322;7.218;2023-12-14T07:35:53;98390.63;;;13.34;86.05
18275;BME280;19470;49.322;7.218;2023-12-14T07:41:34;98400.97;;;13.71;84.45
18275;BME280;19470;49.322;7.218;2023-12-14T07:44:00;98412.41;;;13.36;85.85
18275;BME280;19470;49.322;7.218;2023-12-14T07:46:28;98416.69;;;13.62;84.83
18275;BME280;19470;49.322;7.218;2023-12-14T07:48:56;98431.56;;;13.53;85.85
18275;BME280;19470;49.322;7.218;2023-12-14T07:51:22;98432.63;;;13.72;84.99
18275;BME280;19470;49.322;7.218;2023-12-14T07:53:49;98445.94;;;13.47;85.87
18275;BME280;19470;49.322;7.218;2023-12-14T07:56:15;98444.88;;;13.63;85.49
18275;BME280;19470;49.322;7.218;2023-12-14T07:58:42;98444.88;;;13.53;85.33
18275;BME280;19470;49.322;7.218;2023-12-14T08:01:08;98451.28;;;13.47;87.13
18275;BME280;19470;49.322;7.218;2023-12-14T08:03:35;98452.06;;;13.37;86.61
18275;BME280;19470;49.322;7.218;2023-12-14T08:06:03;98456.31;;;13.79;84.95
18275;BME280;19470;49.322;7.218;2023-12-14T08:08:29;98456.34;;;13.74;84.71
18275;BME280;19470;49.322;7.218;2023-12-14T08:10:56;98456.53;;;14.08;83.14
18275;BME280;19470;49.322;7.218;2023-12-14T08:13:22;98468.25;;;13.97;82.84
18275;BME280;19470;49.322;7.218;2023-12-14T08:15:49;98478.41;;;13.74;82.77
18275;BME280;19470;49.322;7.218;2023-12-14T08:18:15;98480.44;;;13.21;88.37
18275;BME280;19470;49.322;7.218;2023-12-14T08:20:42;98484.78;;;13.89;84.80
18275;BME280;19470;49.322;7.218;2023-12-14T08:23:10;98490.38;;;13.87;83.83
18275;BME280;19470;49.322;7.218;2023-12-14T08:25:37;98494.06;;;14.17;83.13
18275;BME280;19470;49.322;7.218;2023-12-14T08:28:04;98500.50;;;13.65;85.24
18275;BME280;19470;49.322;7.218;2023-12-14T08:30:30;98509.81;;;14.03;83.80
18275;BME280;19470;49.322;7.218;2023-12-14T08:32:56;98515.13;;;14.08;83.51
18275;BME280;19470;49.322;7.218;2023-12-14T08:35:23;98525.50;;;14.04;83.03
18275;BME280;19470;49.322;7.218;2023-12-14T08:37:49;98528.97;;;14.10;83.08
18275;BME280;19470;49.322;7.218;2023-12-14T08:40:17;98533.75;;;13.77;84.48
18275;BME280;19470;49.322;7.218;2023-12-14T08:42:44;98544.38;;;13.62;86.39
18275;BME280;19470;49.322;7.218;2023-12-14T08:45:10;98543.88;;;13.96;84.44
18275;BME280;19470;49.322;7.218;2023-12-14T08:47:37;98555.59;;;13.79;85.51
18275;BME280;19470;49.322;7.218;2023-12-14T08:50:05;98564.00;;;13.30;89.21
18275;BME280;19470;49.322;7.218;2023-12-14T08:52:33;98563.81;;;13.78;85.00
18275;BME280;19470;49.322;7.218;2023-12-14T08:54:59;98566.31;;;13.12;88.32
18275;BME280;19470;49.322;7.218;2023-12-14T08:57:28;98559.84;;;13.91;85.31
18275;BME280;19470;49.322;7.218;2023-12-14T08:59:55;98571.78;;;13.58;86.40
18275;BME280;19470;49.322;7.218;2023-12-14T09:02:21;98570.47;;;13.65;87.37
18275;BME280;19470;49.322;7.218;2023-12-14T09:04:48;98583.00;;;13.90;86.20
18275;BME280;19470;49.322;7.218;2023-12-14T09:07:14;98576.09;;;13.79;86.16
18275;BME280;19470;49.322;7.218;2023-12-14T09:09:41;98592.56;;;13.55;88.47
18275;BME280;19470;49.322;7.218;2023-12-14T09:12:07;98591.31;;;13.16;90.50
18275;BME280;19470;49.322;7.218;2023-12-14T09:14:37;98593.38;;;13.97;87.06
18275;BME280;19470;49.322;7.218;2023-12-14T09:17:04;98595.53;;;14.15;85.58
18275;BME280;19470;49.322;7.218;2023-12-14T09:19:30;98591.28;;;13.89;85.82
18275;BME280;19470;49.322;7.218;2023-12-14T09:21:57;98594.97;;;14.39;84.01
18275;BME280;19470;49.322;7.218;2023-12-14T09:24:24;98605.59;;;13.62;87.24
18275;BME280;19470;49.322;7.218;2023-12-14T09:26:50;98618.53;;;13.28;88.45
18275;BME280;19470;49.322;7.218;2023-12-14T09:29:17;98631.22;;;12.68;94.29
18275;BME280;19470;49.322;7.218;2023-12-14T09:31:45;98624.47;;;13.03;93.92
18275;BME280;19470;49.322;7.218;2023-12-14T09:34:12;98635.34;;;13.49;90.54
18275;BME280;19470;49.322;7.218;2023-12-14T09:36:42;98644.19;;;13.07;91.64
18275;BME280;19470;49.322;7.218;2023-12-14T09:39:08;98643.88;;;12.56;93.00
18275;BME280;19470;49.322;7.218;2023-12-14T09:41:36;98647.03;;;13.38;88.30
18275;BME280;19470;49.322;7.218;2023-12-14T09:44:02;98656.91;;;12.95;91.18
18275;BME280;19470;49.322;7.218;2023-12-14T09:46:30;98662.63;;;14.02;85.97
18275;BME280;19470;49.322;7.218;2023-12-14T09:48:59;98658.81;;;12.62;90.76
18275;BME280;19470;49.322;7.218;2023-12-14T09:51:45;98674.09;;;13.29;90.36
18275;BME280;19470;49.322;7.218;2023-12-14T09:54:12;98664.75;;;14.00;86.23
18275;BME280;19470;49.322;7.218;2023-12-14T09:56:48;98674.31;;;13.91;85.32
18275;BME280;19470;49.322;7.218;2023-12-14T09:59:15;98671.81;;;13.53;86.88
18275;BME280;19470;49.322;7.218;2023-12-14T10:01:42;98682.09;;;13.35;88.05
18275;BME280;19470;49.322;7.218;2023-12-14T10:04:17;98685.53;;;13.98;85.33
18275;BME280;19470;49.322;7.218;2023-12-14T10:06:45;98686.09;;;14.30;80.66
18275;BME280;19470;49.322;7.218;2023-12-14T10:09:12;98680.00;;;14.35;81.40
18275;BME280;19470;49.322;7.218;2023-12-14T10:11:43;98684.25;;;14.92;79.42
18275;BME280;19470;49.322;7.218;2023-12-14T10:14:18;98683.19;;;15.73;76.19
18275;BME280;19470;49.322;7.218;2023-12-14T10:16:46;98688.25;;;14.74;78.85
18275;BME280;19470;49.322;7.218;2023-12-14T10:19:13;98685.28;;;15.06;77.20
18275;BME280;19470;49.322;7.218;2023-12-14T10:21:41;98700.78;;;14.69;78.45
18275;BME280;19470;49.322;7.218;2023-12-14T10:24:07;98698.28;;;15.28;76.60
18275;BME280;19470;49.322;7.218;2023-12-14T10:26:34;98704.00;;;14.50;81.07
18275;BME280;19470;49.322;7.218;2023-12-14T10:29:01;98700.00;;;14.68;79.95
18275;BME280;19470;49.322;7.218;2023-12-14T10:31:30;98702.59;;;15.04;78.14
18275;BME280;19470;49.322;7.218;2023-12-14T10:33:56;98709.63;;;15.70;75.16
18275;BME280;19470;49.322;7.218;2023-12-14T10:36:25;98708.31;;;15.62;75.33
18275;BME280;19470;49.322;7.218;2023-12-14T10:38:56;98704.88;;;16.11;72.27
18275;BME280;19470;49.322;7.218;2023-12-14T10:41:23;98712.06;;;15.51;73.64
18275;BME280;19470;49.322;7.218;2023-12-14T10:43:53;98719.69;;;14.98;80.35
18275;BME280;19470;49.322;7.218;2023-12-14T10:46:20;98723.97;;;14.78;79.35
18275;BME280;19470;49.322;7.218;2023-12-14T10:48:49;98730.88;;;15.95;74.13
18275;BME280;19470;49.322;7.218;2023-12-14T10:51:17;98727.19;;;14.50;78.93
18275;BME280;19470;49.322;7.218;2023-12-14T10:53:45;98729.34;;;15.79;72.63
18275;BME280;19470;49.322;7.218;2023-12-14T10:56:16;98736.47;;;15.94;72.37
18275;BME280;19470;49.322;7.218;2023-12-14T10:58:47;98738.09;;;14.79;79.03
18275;BME280;19470;49.322;7.218;2023-12-14T11:01:14;98740.38;;;15.47;75.55
18275;BME280;19470;49.322;7.218;2023-12-14T11:03:42;98740.25;;;15.88;73.55
18275;BME280;19470;49.322;7.218;2023-12-14T11:06:20;98743.63;;;15.39;75.51
18275;BME280;19470;49.322;7.218;2023-12-14T11:08:47;98742.75;;;16.18;71.62
18275;BME280;19470;49.322;7.218;2023-12-14T11:11:15;98750.88;;;16.47;71.94
18275;BME280;19470;49.322;7.218;2023-12-14T11:13:46;98766.63;;;14.94;74.07
18275;BME280;19470;49.322;7.218;2023-12-14T11:16:14;98763.78;;;16.35;70.83
18275;BME280;19470;49.322;7.218;2023-12-14T11:18:41;98770.25;;;14.21;76.06
18275;BME280;19470;49.322;7.218;2023-12-14T11:21:08;98776.16;;;14.39;77.04
18275;BME280;19470;49.322;7.218;2023-12-14T11:23:36;98775.13;;;15.31;74.17
18275;BME280;19470;49.322;7.218;2023-12-14T11:26:22;98777.22;;;15.50;72.69
18275;BME280;19470;49.322;7.218;2023-12-14T11:28:53;98766.09;;;16.52;69.17
18275;BME280;19470;49.322;7.218;2023-12-14T11:31:20;98770.03;;;16.15;70.88
18275;BME280;19470;49.322;7.218;2023-12-14T11:33:48;98775.53;;;16.78;68.00
18275;BME280;19470;49.322;7.218;2023-12-14T11:36:15;98766.63;;;17.46;63.57
18275;BME280;19470;49.322;7.218;2023-12-14T11:38:42;98783.94;;;16.96;63.79
18275;BME280;19470;49.322;7.218;2023-12-14T11:41:10;98778.75;;;17.62;62.15
18275;BME280;19470;49.322;7.218;2023-12-14T11:43:41;98777.47;;;18.97;58.53
18275;BME280;19470;49.322;7.218;2023-12-14T11:46:08;98780.31;;;19.20;56.59
18275;BME280;19470;49.322;7.218;2023-12-14T11:48:35;98779.94;;;17.99;58.26
18275;BME280;19470;49.322;7.218;2023-12-14T11:51:02;98787.09;;;16.64;62.80
18275;BME280;19470;49.322;7.218;2023-12-14T11:53:29;98803.97;;;14.78;70.98
18275;BME280;19470;49.322;7.218;2023-12-14T11:55:56;98807.66;;;14.62;70.61
18275;BME280;19470;49.322;7.218;2023-12-14T11:58:24;98798.53;;;15.65;66.03
18275;BME280;19470;49.322;7.218;2023-12-14T12:00:53;98796.19;;;15.33;66.38
18275;BME280;19470;49.322;7.218;2023-12-14T12:03:20;98804.13;;;15.79;67.60
18275;BME280;19470;49.322;7.218;2023-12-14T12:05:48;98811.94;;;14.73;73.16
18275;BME280;19470;49.322;7.218;2023-12-14T12:08:17;98808.19;;;14.59;72.03
18275;BME280;19470;49.322;7.218;2023-12-14T12:10:45;98809.28;;;15.14;69.19
18275;BME280;19470;49.322;7.218;2023-12-14T12:13:14;98804.50;;;15.11;68.68
18275;BME280;19470;49.322;7.218;2023-12-14T12:15:41;98808.09;;;14.28;72.80
18275;BME280;19470;49.322;7.218;2023-12-14T12:18:10;98803.44;;;14.97;71.53
18275;BME280;19470;49.322;7.218;2023-12-14T12:20:37;98793.53;;;16.13;67.45
18275;BME280;19470;49.322;7.218;2023-12-14T12:23:04;98807.81;;;16.48;65.72
18275;BME280;19470;49.322;7.218;2023-12-14T12:25:31;98804.72;;;17.09;63.59
18275;BME280;19470;49.322;7.218;2023-12-14T12:27:58;98799.06;;;19.38;56.99
18275;BME280;19470;49.322;7.218;2023-12-14T12:30:25;98801.34;;;18.61;57.21
18275;BME280;19470;49.322;7.218;2023-12-14T12:32:51;98794.66;;;17.78;59.19
18275;BME280;19470;49.322;7.218;2023-12-14T12:35:20;98788.91;;;16.78;62.71
18275;BME280;19470;49.322;7.218;2023-12-14T12:37:47;98796.03;;;17.99;59.28
18275;BME280;19470;49.322;7.218;2023-12-14T12:40:19;98793.31;;;17.27;60.06
18275;BME280;19470;49.322;7.218;2023-12-14T12:42:46;98800.59;;;16.48;63.41
18275;BME280;19470;49.322;7.218;2023-12-14T12:45:14;98804.00;;;17.56;59.23
18275;BME280;19470;49.322;7.218;2023-12-14T12:47:41;98815.13;;;15.31;67.62
18275;BME280;19470;49.322;7.218;2023-12-14T12:50:07;98820.78;;;14.06;70.44
18275;BME280;19470;49.322;7.218;2023-12-14T12:52:36;98815.91;;;14.55;69.59
18275;BME280;19470;49.322;7.218;2023-12-14T12:55:09;98818.34;;;15.44;67.93
18275;BME280;19470;49.322;7.218;2023-12-14T12:57:41;98820.19;;;15.38;66.85
18275;BME280;19470;49.322;7.218;2023-12-14T13:00:09;98822.03;;;16.38;62.80
18275;BME280;19470;49.322;7.218;2023-12-14T13:02:36;98818.56;;;16.38;63.21
18275;BME280;19470;49.322;7.218;2023-12-14T13:05:04;98826.59;;;16.38;62.13